Hauptseite
METAR-TAF:

METAR-TAF

Flughäfen :

Fliegerhorst Ingolstadt/Manching

Ingolstadt, Deutschland

Breite: 48-43N, Länge: 011-32E, Höhe: 367 m

Beobachtung

Neuester Wetterbericht von vor 1 Stunde und 3 Minuten, um 11:20 UTC
Wind 8 kt aus Ost
Temperatur 7°C
Luftfeuchtigkeit 70%
Luftdruck 1029 hPa
Sichtweite 10 km oder mehr
Leicht bewölkt in der Höhe von 1000 ft

METAR: ETSI 161120Z 09008KT 9999 FEW010 07/02 Q1029 BLU+BLU+

Zeit: 13:23 (12:23 UTC)

Prognose

Neuester Wetterbericht von vor 1 Stunde und 5 Minuten, um 11:18 UTC
Gültige Prognose vom 16 um 12 UTC bis 16 um 21 UTC
Wind 8 kt aus Ost/Nordost
Sichtweite: 1300 m
Himmel klar

TAF: ETSI 161118Z 1612/1621 07008KT 9999 NSW SKC CANCEL 1300

Wetterbeobachtungen und Prognosen von mehr als 4000 Flughäfen (METAR und TAF Bericht).

Die verfügbaren Stationen werden durch gelbe und rote Markierungen auf der Karte dargestellt.

Führen Sie die Maus auf sie, um den Namen der Station zu sehen.

Darauf klicken, um die Beobachtung von Wetterbeobachtungen und Prognosen zu sehen.

Um die Karte zu ändern : klicken Sie auf den grünen Tasten mit einem schwarzen Kreuz Zum Vergrößern, auf den grünen Button mit einem Gedankenstrich zu verkleinern, oder auf die grünen Pfeile für benachbarte Karten.


METAR-TAF: